createdAt,value
2017-12-08T00:01:09.441Z,97291.30
2017-12-08T00:03:36.830Z,97289.35
2017-12-08T00:06:04.306Z,97284.47
2017-12-08T00:08:31.830Z,97295.53
2017-12-08T00:10:59.378Z,97297.08
2017-12-08T00:13:26.927Z,97296.38
2017-12-08T00:15:54.402Z,97287.01
2017-12-08T00:18:22.745Z,97302.63
2017-12-08T00:20:50.190Z,97292.95
2017-12-08T00:23:17.735Z,97288.44
2017-12-08T00:25:45.262Z,97288.25
2017-12-08T00:28:12.744Z,97283.26
2017-12-08T00:30:40.175Z,97279.17
2017-12-08T00:33:07.569Z,97282.81
2017-12-08T00:35:34.990Z,97274.48
2017-12-08T00:38:02.439Z,97272.31
2017-12-08T00:40:30.192Z,97272.20
2017-12-08T00:42:57.968Z,97283.70
2017-12-08T00:45:25.414Z,97291.67
2017-12-08T00:47:52.905Z,97290.64
2017-12-08T00:50:20.374Z,97280.87
2017-12-08T00:52:47.835Z,97270.25
2017-12-08T00:55:15.223Z,97276.34
2017-12-08T00:57:42.682Z,97264.78
2017-12-08T01:00:10.075Z,97262.72
2017-12-08T01:02:37.503Z,97244.02
2017-12-08T01:05:04.890Z,97228.33
2017-12-08T01:07:32.359Z,97225.78
2017-12-08T01:09:59.787Z,97213.26
2017-12-08T01:12:27.714Z,97218.55
2017-12-08T01:14:55.309Z,97237.36
2017-12-08T01:17:22.727Z,97222.22
2017-12-08T01:19:50.146Z,97225.16
2017-12-08T01:22:17.597Z,97238.13
2017-12-08T01:24:44.979Z,97248.94
2017-12-08T01:27:12.417Z,97249.52
2017-12-08T01:29:39.897Z,97262.34
2017-12-08T01:32:07.322Z,97253.72
2017-12-08T01:34:34.741Z,97268.55
2017-12-08T01:37:02.204Z,97261.86
2017-12-08T01:39:29.614Z,97266.17
2017-12-08T01:41:57.059Z,97259.10
2017-12-08T01:44:24.458Z,97255.28
2017-12-08T01:46:51.938Z,97263.73
2017-12-08T01:49:19.370Z,97252.85
2017-12-08T01:51:46.803Z,97251.33
2017-12-08T01:54:14.200Z,97260.93
2017-12-08T01:56:41.662Z,97272.10
2017-12-08T01:59:09.128Z,97263.17
2017-12-08T02:01:36.566Z,97266.22
2017-12-08T02:04:03.949Z,97264.13
2017-12-08T02:06:31.466Z,97262.22
2017-12-08T02:08:58.927Z,97266.22
2017-12-08T02:11:26.374Z,97265.42
2017-12-08T02:13:53.848Z,97265.16
2017-12-08T02:16:21.242Z,97271.08
2017-12-08T02:18:48.670Z,97260.68
2017-12-08T02:21:16.171Z,97265.05
2017-12-08T02:23:43.595Z,97264.84
2017-12-08T02:26:11.103Z,97268.30
2017-12-08T02:28:38.521Z,97258.73
2017-12-08T02:31:05.916Z,97264.11
2017-12-08T02:33:33.373Z,97257.37
2017-12-08T02:36:00.798Z,97253.70
2017-12-08T02:38:28.382Z,97246.87
2017-12-08T02:40:55.778Z,97258.19
2017-12-08T02:43:23.215Z,97247.31
2017-12-08T02:45:50.654Z,97253.20
2017-12-08T02:48:18.105Z,97248.56
2017-12-08T02:50:45.595Z,97246.66
2017-12-08T02:53:13.015Z,97249.70
2017-12-08T02:55:40.433Z,97246.29
2017-12-08T02:58:07.895Z,97248.57
2017-12-08T03:00:35.293Z,97249.78
2017-12-08T03:03:02.758Z,97245.85
2017-12-08T03:05:30.277Z,97246.99
2017-12-08T03:07:57.748Z,97250.08
2017-12-08T03:10:25.151Z,97258.67
2017-12-08T03:12:52.619Z,97252.69
2017-12-08T03:15:20.006Z,97255.85
2017-12-08T03:17:47.677Z,97257.80
2017-12-08T03:20:15.094Z,97257.46
2017-12-08T03:22:42.490Z,97256.33
2017-12-08T03:25:09.974Z,97265.80
2017-12-08T03:27:37.365Z,97257.42
2017-12-08T03:30:04.912Z,97259.44
2017-12-08T03:32:32.311Z,97255.73
2017-12-08T03:34:59.744Z,97246.03
2017-12-08T03:37:27.263Z,97245.81
2017-12-08T03:39:54.687Z,97258.78
2017-12-08T03:42:22.250Z,97251.91
2017-12-08T03:44:49.718Z,97253.75
2017-12-08T03:47:17.158Z,97254.85
2017-12-08T03:49:44.591Z,97252.54
2017-12-08T03:52:12.039Z,97265.79
2017-12-08T03:54:39.508Z,97261.91
2017-12-08T03:57:06.902Z,97262.63
2017-12-08T03:59:34.356Z,97268.48
2017-12-08T04:02:01.761Z,97267.16
2017-12-08T04:04:29.373Z,97276.00
2017-12-08T04:06:56.850Z,97288.94
2017-12-08T04:09:24.323Z,97287.97
2017-12-08T04:11:51.720Z,97280.52
2017-12-08T04:14:19.165Z,97277.39
2017-12-08T04:16:46.589Z,97280.15
2017-12-08T04:19:13.997Z,97284.47
2017-12-08T04:21:41.396Z,97273.67
2017-12-08T04:24:08.822Z,97274.93
2017-12-08T04:26:36.318Z,97287.23
2017-12-08T04:29:03.746Z,97297.51
2017-12-08T04:31:31.164Z,97306.36
2017-12-08T04:33:58.567Z,97306.95
2017-12-08T04:36:26.062Z,97330.27
2017-12-08T04:38:53.558Z,97315.00
2017-12-08T04:41:20.972Z,97320.17
2017-12-08T04:43:48.374Z,97314.76
2017-12-08T04:46:15.794Z,97310.33
2017-12-08T04:48:43.183Z,97304.83
2017-12-08T04:51:10.706Z,97308.11
2017-12-08T04:53:38.086Z,97315.78
2017-12-08T04:56:05.544Z,97314.72
2017-12-08T04:58:33.043Z,97309.30
2017-12-08T05:01:00.509Z,97305.40
2017-12-08T05:03:27.926Z,97306.95
2017-12-08T05:05:55.356Z,97306.06
2017-12-08T05:08:22.793Z,97301.13
2017-12-08T05:10:50.255Z,97301.84
2017-12-08T05:13:17.657Z,97308.59
2017-12-08T05:15:45.100Z,97318.17
2017-12-08T05:18:12.486Z,97314.53
2017-12-08T05:20:39.934Z,97310.83
2017-12-08T05:23:07.403Z,97321.41
2017-12-08T05:25:34.833Z,97318.08
2017-12-08T05:28:02.274Z,97329.12
2017-12-08T05:30:29.750Z,97320.80
2017-12-08T05:32:57.154Z,97312.75
2017-12-08T05:35:24.578Z,97302.30
2017-12-08T05:37:51.967Z,97294.02
2017-12-08T05:40:19.390Z,97293.97
2017-12-08T05:42:46.855Z,97302.64
2017-12-08T05:45:14.335Z,97294.33
2017-12-08T05:47:41.800Z,97286.63
2017-12-08T05:50:09.254Z,97291.84
2017-12-08T05:52:36.686Z,97297.30
2017-12-08T05:55:04.121Z,97315.11
2017-12-08T05:57:31.615Z,97310.23
2017-12-08T05:59:59.037Z,97323.08
2017-12-08T06:02:26.526Z,97322.14
2017-12-08T06:04:53.957Z,97321.08
2017-12-08T06:07:21.389Z,97313.04
2017-12-08T06:09:48.813Z,97308.70
2017-12-08T06:12:16.315Z,97328.06
2017-12-08T06:14:43.702Z,97334.25
2017-12-08T06:17:11.136Z,97333.00
2017-12-08T06:19:38.531Z,97334.28
2017-12-08T06:22:05.954Z,97329.20
2017-12-08T06:24:33.359Z,97333.25
2017-12-08T06:27:00.842Z,97328.74
2017-12-08T06:29:28.278Z,97331.91
2017-12-08T06:31:55.718Z,97339.61
2017-12-08T06:34:23.119Z,97337.44
2017-12-08T06:36:50.595Z,97328.48
2017-12-08T06:39:18.027Z,97332.80
2017-12-08T06:41:45.465Z,97337.52
2017-12-08T06:44:12.903Z,97340.09
2017-12-08T06:46:40.372Z,97331.23
2017-12-08T06:49:07.758Z,97332.41
2017-12-08T06:51:35.222Z,97339.10
2017-12-08T06:54:02.711Z,97335.67
2017-12-08T06:56:30.190Z,97339.41
2017-12-08T06:58:57.683Z,97347.02
2017-12-08T07:01:25.091Z,97333.03
2017-12-08T07:03:52.563Z,97338.79
2017-12-08T07:06:19.955Z,97346.59
2017-12-08T07:08:47.416Z,97347.45
2017-12-08T07:11:14.801Z,97345.45
2017-12-08T07:13:42.245Z,97349.56
2017-12-08T07:16:09.632Z,97352.05
2017-12-08T07:18:37.054Z,97350.92
2017-12-08T07:21:04.553Z,97369.41
2017-12-08T07:23:31.985Z,97366.44
2017-12-08T07:25:59.397Z,97361.13
2017-12-08T07:28:26.838Z,97363.58
2017-12-08T07:30:54.224Z,97381.64
2017-12-08T07:33:21.666Z,97378.78
2017-12-08T07:35:49.167Z,97375.94
2017-12-08T07:38:16.607Z,97376.75
2017-12-08T07:40:43.994Z,97373.62
2017-12-08T07:43:11.428Z,97372.27
2017-12-08T07:45:38.947Z,97382.30
2017-12-08T07:48:06.422Z,97378.88
2017-12-08T07:50:33.814Z,97379.53
2017-12-08T07:53:01.255Z,97382.50
2017-12-08T07:55:29.167Z,97385.67
2017-12-08T07:57:56.610Z,97397.50
2017-12-08T08:00:24.002Z,97387.56
2017-12-08T08:02:51.480Z,97382.67
2017-12-08T08:05:18.887Z,97392.56
2017-12-08T08:07:46.411Z,97379.59
2017-12-08T08:10:13.847Z,97379.16
2017-12-08T08:12:41.330Z,97397.50
2017-12-08T08:15:08.758Z,97400.56
2017-12-08T08:17:36.183Z,97397.53
2017-12-08T08:20:03.637Z,97396.09
2017-12-08T08:22:31.070Z,97403.88
2017-12-08T08:24:58.506Z,97406.33
2017-12-08T08:27:25.939Z,97413.15
2017-12-08T08:29:53.380Z,97410.28
2017-12-08T08:32:20.778Z,97411.11
2017-12-08T08:34:48.261Z,97413.83
2017-12-08T08:37:15.650Z,97421.22
2017-12-08T08:39:43.082Z,97422.80
2017-12-08T08:42:10.563Z,97427.33
2017-12-08T08:44:38.031Z,97433.66
2017-12-08T08:47:05.422Z,97429.38
2017-12-08T08:49:32.901Z,97426.24
2017-12-08T08:52:00.409Z,97426.47
2017-12-08T08:54:27.804Z,97424.04
2017-12-08T08:56:55.273Z,97429.84
2017-12-08T08:59:22.739Z,97439.11
2017-12-08T09:01:50.206Z,97439.61
2017-12-08T09:04:17.653Z,97447.61
2017-12-08T09:06:45.087Z,97457.02
2017-12-08T09:09:12.617Z,97474.81
2017-12-08T09:11:40.101Z,97478.28
2017-12-08T09:14:07.527Z,97475.83
2017-12-08T09:16:34.922Z,97465.92
2017-12-08T09:19:02.352Z,97472.64
2017-12-08T09:21:29.793Z,97469.91
2017-12-08T09:23:57.213Z,97471.22
2017-12-08T09:26:24.655Z,97461.69
2017-12-08T09:28:52.057Z,97470.23
2017-12-08T09:31:19.494Z,97461.77
2017-12-08T09:33:46.916Z,97458.67
2017-12-08T09:36:14.358Z,97460.80
2017-12-08T09:38:41.743Z,97468.20
2017-12-08T09:41:09.185Z,97465.00
2017-12-08T09:43:36.641Z,97462.08
2017-12-08T09:46:04.066Z,97466.32
2017-12-08T09:48:31.495Z,97468.16
2017-12-08T09:50:59.037Z,97470.09
2017-12-08T09:53:26.421Z,97456.36
2017-12-08T09:55:53.859Z,97463.80
2017-12-08T09:58:21.314Z,97461.92
2017-12-08T10:00:48.809Z,97460.14
2017-12-08T10:03:16.224Z,97452.95
2017-12-08T10:05:43.727Z,97453.88
2017-12-08T10:08:11.126Z,97450.30
2017-12-08T10:10:38.624Z,97452.86
2017-12-08T10:13:06.008Z,97444.34
2017-12-08T10:15:33.442Z,97437.39
2017-12-08T10:18:00.953Z,97434.02
2017-12-08T10:20:28.411Z,97431.80
2017-12-08T10:22:55.911Z,97429.64
2017-12-08T10:25:23.477Z,97419.79
2017-12-08T10:27:50.956Z,97412.27
2017-12-08T10:30:18.354Z,97406.48
2017-12-08T10:32:45.948Z,97409.67
2017-12-08T10:35:13.368Z,97394.76
2017-12-08T10:37:40.838Z,97399.66
2017-12-08T10:40:08.322Z,97386.28
2017-12-08T10:42:35.783Z,97392.87
2017-12-08T10:45:03.190Z,97393.40
2017-12-08T10:47:30.648Z,97373.47
2017-12-08T10:49:58.084Z,97375.85
2017-12-08T10:52:25.507Z,97370.40
2017-12-08T10:54:52.906Z,97359.02
2017-12-08T10:57:20.394Z,97365.13
2017-12-08T10:59:47.800Z,97359.58
2017-12-08T11:02:15.250Z,97363.61
2017-12-08T11:04:42.702Z,97353.33
2017-12-08T11:07:10.143Z,97355.50
2017-12-08T11:09:37.551Z,97348.33
2017-12-08T11:12:04.973Z,97347.51
2017-12-08T11:14:32.388Z,97330.34
2017-12-08T11:16:59.852Z,97337.41
2017-12-08T11:19:27.258Z,97344.00
2017-12-08T11:21:54.684Z,97333.45
2017-12-08T11:24:22.242Z,97322.84
2017-12-08T11:26:49.710Z,97318.45
2017-12-08T11:29:17.111Z,97317.05
2017-12-08T11:31:44.573Z,97300.73
2017-12-08T11:34:11.974Z,97292.09
2017-12-08T11:36:39.514Z,97289.42
2017-12-08T11:39:06.923Z,97283.90
2017-12-08T11:41:34.350Z,97289.59
2017-12-08T11:44:01.804Z,97277.75
2017-12-08T11:46:29.200Z,97270.60
2017-12-08T11:48:56.691Z,97264.00
2017-12-08T11:51:24.103Z,97257.42
2017-12-08T11:53:51.557Z,97254.92
2017-12-08T11:56:18.990Z,97255.92
2017-12-08T11:58:46.447Z,97253.68
2017-12-08T12:01:13.834Z,97259.16
2017-12-08T12:03:41.272Z,97252.05
2017-12-08T12:06:08.666Z,97256.83
2017-12-08T12:08:36.119Z,97250.69
2017-12-08T12:11:03.514Z,97255.58
2017-12-08T12:13:31.023Z,97256.89
2017-12-08T12:15:58.447Z,97272.13
2017-12-08T12:18:25.882Z,97288.88
2017-12-08T12:20:53.278Z,97291.05
2017-12-08T12:23:20.675Z,97298.70
2017-12-08T12:25:48.146Z,97315.02
2017-12-08T12:28:15.600Z,97328.12
2017-12-08T12:30:42.996Z,97365.67
2017-12-08T12:33:10.434Z,97386.31
2017-12-08T12:35:37.871Z,97402.72
2017-12-08T12:38:05.316Z,97417.79
2017-12-08T12:40:32.719Z,97431.63
2017-12-08T12:43:00.210Z,97443.38
2017-12-08T12:45:27.611Z,97433.06
2017-12-08T12:47:55.114Z,97435.13
2017-12-08T12:50:22.518Z,97426.64
2017-12-08T12:52:50.054Z,97427.80
2017-12-08T12:55:17.487Z,97419.84
2017-12-08T12:57:44.942Z,97421.16
2017-12-08T13:00:12.375Z,97403.98
2017-12-08T13:02:39.838Z,97409.07
2017-12-08T13:05:07.303Z,97397.38
2017-12-08T13:07:34.711Z,97395.15
2017-12-08T13:10:02.178Z,97395.36
2017-12-08T13:12:29.658Z,97387.27
2017-12-08T13:14:57.121Z,97388.27
2017-12-08T13:17:24.523Z,97383.30
2017-12-08T13:19:51.949Z,97378.86
2017-12-08T13:22:19.397Z,97389.38
2017-12-08T13:24:46.883Z,97387.88
2017-12-08T13:27:14.265Z,97392.92
2017-12-08T13:29:41.800Z,97398.87
2017-12-08T13:32:09.190Z,97399.70
2017-12-08T13:34:36.630Z,97412.55
2017-12-08T13:37:04.037Z,97404.64
2017-12-08T13:39:31.514Z,97419.09
2017-12-08T13:41:59.918Z,97409.98
2017-12-08T13:44:27.400Z,97425.27
2017-12-08T13:46:54.813Z,97405.05
2017-12-08T13:49:22.380Z,97417.98
2017-12-08T13:51:49.771Z,97418.87
2017-12-08T13:54:29.124Z,97428.56
2017-12-08T13:56:56.550Z,97422.81
2017-12-08T13:59:24.039Z,97413.52
2017-12-08T14:01:51.433Z,97418.97
2017-12-08T14:04:18.919Z,97420.41
2017-12-08T14:06:46.363Z,97427.89
2017-12-08T14:09:13.938Z,97432.44
2017-12-08T14:11:41.396Z,97442.45
2017-12-08T14:14:08.796Z,97448.98
2017-12-08T14:16:36.366Z,97445.86
2017-12-08T14:19:03.770Z,97437.08
2017-12-08T14:21:31.207Z,97434.06
2017-12-08T14:23:58.671Z,97426.09
2017-12-08T14:26:26.127Z,97431.84
2017-12-08T14:28:53.526Z,97432.42
2017-12-08T14:31:20.963Z,97418.89
2017-12-08T14:33:48.376Z,97410.91
2017-12-08T14:36:15.885Z,97406.56
2017-12-08T14:38:43.360Z,97407.66
2017-12-08T14:41:10.829Z,97409.45
2017-12-08T14:43:38.221Z,97425.00
2017-12-08T14:46:05.686Z,97426.09
2017-12-08T14:48:33.163Z,97420.53
2017-12-08T14:51:00.714Z,97419.72
2017-12-08T14:53:28.190Z,97427.86
2017-12-08T14:55:55.642Z,97436.36
2017-12-08T14:58:23.044Z,97430.70
2017-12-08T15:00:50.594Z,97431.39
2017-12-08T15:03:18.000Z,97431.88
2017-12-08T15:05:45.453Z,97423.11
2017-12-08T15:08:12.837Z,97422.70
2017-12-08T15:10:40.290Z,97428.45
2017-12-08T15:13:07.694Z,97416.15
2017-12-08T15:15:35.132Z,97410.67
2017-12-08T15:18:02.567Z,97423.28
2017-12-08T15:20:30.077Z,97431.73
2017-12-08T15:22:57.558Z,97422.56
2017-12-08T15:25:24.978Z,97428.61
2017-12-08T15:27:52.519Z,97436.56
2017-12-08T15:30:19.940Z,97440.27
2017-12-08T15:32:47.386Z,97441.34
2017-12-08T15:35:14.782Z,97433.56
2017-12-08T15:37:42.254Z,97438.95
2017-12-08T15:40:09.654Z,97434.52
2017-12-08T15:42:37.174Z,97439.85
2017-12-08T15:45:04.567Z,97439.79
2017-12-08T15:47:32.150Z,97432.64
2017-12-08T15:49:59.571Z,97434.52
2017-12-08T15:52:27.053Z,97433.14
2017-12-08T15:54:54.466Z,97430.25
2017-12-08T15:57:21.923Z,97428.94
2017-12-08T15:59:49.333Z,97433.22
2017-12-08T16:02:16.923Z,97428.94
2017-12-08T16:04:44.339Z,97430.05
2017-12-08T16:07:11.778Z,97430.69
2017-12-08T16:09:39.178Z,97426.73
2017-12-08T16:12:06.634Z,97427.41
2017-12-08T16:14:34.050Z,97444.55
2017-12-08T16:17:01.591Z,97445.78
2017-12-08T16:19:29.254Z,97451.00
2017-12-08T16:21:56.791Z,97441.63
2017-12-08T16:24:24.212Z,97436.67
2017-12-08T16:26:51.595Z,97440.30
2017-12-08T16:29:19.061Z,97438.23
2017-12-08T16:31:46.617Z,97433.60
2017-12-08T16:34:14.092Z,97437.22
2017-12-08T16:36:41.483Z,97451.22
2017-12-08T16:39:08.984Z,97454.30
2017-12-08T16:41:36.375Z,97454.64
2017-12-08T16:44:03.849Z,97463.39
2017-12-08T16:46:31.293Z,97470.56
2017-12-08T16:48:58.828Z,97466.93
2017-12-08T16:51:26.234Z,97470.31
2017-12-08T16:53:53.702Z,97468.22
2017-12-08T16:56:21.093Z,97469.11
2017-12-08T16:58:48.542Z,97474.42
2017-12-08T17:01:15.932Z,97475.22
2017-12-08T17:03:44.285Z,97476.42
2017-12-08T17:06:11.683Z,97473.76
2017-12-08T17:08:39.143Z,97477.61
2017-12-08T17:11:06.602Z,97473.02
2017-12-08T17:13:34.179Z,97472.48
2017-12-08T17:16:01.700Z,97483.04
2017-12-08T17:18:29.224Z,97452.53
2017-12-08T17:20:56.633Z,97451.48
2017-12-08T17:23:24.098Z,97458.96
2017-12-08T17:25:51.540Z,97456.02
2017-12-08T17:28:19.042Z,97460.58
2017-12-08T17:30:46.417Z,97460.25
2017-12-08T17:33:13.852Z,97459.35
2017-12-08T17:35:41.260Z,97461.91
2017-12-08T17:38:08.668Z,97467.38
2017-12-08T17:40:36.107Z,97474.23
2017-12-08T17:43:03.538Z,97481.65
2017-12-08T17:45:31.059Z,97488.17
2017-12-08T17:47:58.514Z,97495.13
2017-12-08T17:50:25.979Z,97497.80
2017-12-08T17:52:53.385Z,97503.46
2017-12-08T17:55:20.830Z,97499.19
2017-12-08T17:57:48.279Z,97507.67
2017-12-08T18:00:15.723Z,97512.67
2017-12-08T18:02:43.183Z,97528.81
2017-12-08T18:05:10.619Z,97524.48
2017-12-08T18:07:38.021Z,97515.51
2017-12-08T18:10:05.486Z,97512.08
2017-12-08T18:12:32.901Z,97515.51
2017-12-08T18:15:00.405Z,97511.77
2017-12-08T18:17:27.866Z,97512.64
2017-12-08T18:19:56.272Z,97512.89
2017-12-08T18:22:23.671Z,97523.46
2017-12-08T18:24:51.113Z,97534.69
2017-12-08T18:27:18.515Z,97528.05
2017-12-08T18:29:46.042Z,97528.73
2017-12-08T18:32:13.428Z,97523.70
2017-12-08T18:34:40.857Z,97526.14
2017-12-08T18:37:08.256Z,97524.84
2017-12-08T18:39:35.695Z,97527.04
2017-12-08T18:42:03.125Z,97521.32
2017-12-08T18:44:30.678Z,97527.55
2017-12-08T18:46:58.158Z,97527.09
2017-12-08T18:49:25.611Z,97534.96
2017-12-08T18:51:52.999Z,97536.28
2017-12-08T18:54:20.417Z,97532.17
2017-12-08T18:56:47.874Z,97538.40
2017-12-08T18:59:15.262Z,97537.66
2017-12-08T19:01:42.686Z,97517.77
2017-12-08T19:04:10.079Z,97529.88
2017-12-08T19:06:37.584Z,97522.66
2017-12-08T19:09:04.973Z,97520.98
2017-12-08T19:11:32.419Z,97521.48
2017-12-08T19:13:59.856Z,97528.09
2017-12-08T19:16:27.852Z,97535.86
2017-12-08T19:18:55.257Z,97523.06
2017-12-08T19:21:22.675Z,97532.89
2017-12-08T19:23:50.085Z,97526.16
2017-12-08T19:26:17.588Z,97533.89
2017-12-08T19:28:44.980Z,97528.66
2017-12-08T19:31:12.426Z,97531.69
2017-12-08T19:33:39.864Z,97530.92
2017-12-08T19:36:07.316Z,97534.75
2017-12-08T19:38:34.705Z,97536.68
2017-12-08T19:41:02.190Z,97523.23
2017-12-08T19:43:29.685Z,97514.73
2017-12-08T19:45:57.147Z,97512.52
2017-12-08T19:48:24.538Z,97515.63
2017-12-08T19:50:51.971Z,97515.75
2017-12-08T19:53:19.486Z,97513.83
2017-12-08T19:55:46.998Z,97512.18
2017-12-08T19:58:14.443Z,97521.59
2017-12-08T20:00:41.934Z,97516.50
2017-12-08T20:03:09.415Z,97528.18
2017-12-08T20:05:36.812Z,97527.76
2017-12-08T20:08:04.258Z,97533.06
2017-12-08T20:10:31.657Z,97536.53
2017-12-08T20:12:59.166Z,97534.05
2017-12-08T20:15:26.573Z,97536.57
2017-12-08T20:17:54.026Z,97540.11
2017-12-08T20:20:21.422Z,97541.00
2017-12-08T20:22:48.878Z,97543.29
2017-12-08T20:25:16.276Z,97540.17
2017-12-08T20:27:43.712Z,97545.03
2017-12-08T20:30:12.316Z,97539.96
2017-12-08T20:32:39.764Z,97539.02
2017-12-08T20:35:07.235Z,97550.18
2017-12-08T20:37:34.697Z,97550.27
2017-12-08T20:40:02.204Z,97552.82
2017-12-08T20:42:30.185Z,97562.80
2017-12-08T20:44:57.695Z,97545.67
2017-12-08T20:47:25.151Z,97548.63
2017-12-08T20:49:52.538Z,97546.58
2017-12-08T20:52:19.983Z,97537.45
2017-12-08T20:54:47.417Z,97544.86
2017-12-08T20:57:14.896Z,97550.80
2017-12-08T20:59:42.279Z,97543.25
2017-12-08T21:02:09.762Z,97549.73
2017-12-08T21:04:37.154Z,97550.62
2017-12-08T21:07:04.794Z,97551.81
2017-12-08T21:09:32.183Z,97554.64
2017-12-08T21:11:59.612Z,97551.89
2017-12-08T21:14:27.094Z,97550.46
2017-12-08T21:16:54.476Z,97547.91
2017-12-08T21:19:21.918Z,97541.73
2017-12-08T21:21:49.353Z,97541.50
2017-12-08T21:24:16.856Z,97545.84
2017-12-08T21:26:44.243Z,97542.55
2017-12-08T21:29:11.679Z,97544.46
2017-12-08T21:31:39.155Z,97545.22
2017-12-08T21:34:06.586Z,97542.90
2017-12-08T21:36:33.973Z,97546.11
2017-12-08T21:39:01.565Z,97547.05
2017-12-08T21:41:28.968Z,97548.56
2017-12-08T21:43:56.433Z,97541.52
2017-12-08T21:46:23.818Z,97550.42
2017-12-08T21:48:51.255Z,97550.09
2017-12-08T21:51:18.725Z,97552.52
2017-12-08T21:53:46.203Z,97545.38
2017-12-08T21:56:13.601Z,97551.55
2017-12-08T21:58:41.114Z,97557.27
2017-12-08T22:01:08.554Z,97556.81
2017-12-08T22:03:36.067Z,97553.17
2017-12-08T22:06:03.566Z,97558.98
2017-12-08T22:08:31.046Z,97559.28
2017-12-08T22:10:58.474Z,97561.96
2017-12-08T22:13:25.934Z,97562.25
2017-12-08T22:15:53.326Z,97551.69
2017-12-08T22:18:20.770Z,97566.91
2017-12-08T22:20:48.253Z,97568.34
2017-12-08T22:23:15.653Z,97571.56
2017-12-08T22:25:43.088Z,97588.55
2017-12-08T22:28:10.482Z,97573.08
2017-12-08T22:30:37.922Z,97574.73
2017-12-08T22:33:05.348Z,97579.34
2017-12-08T22:35:32.836Z,97570.70
2017-12-08T22:38:00.351Z,97578.70
2017-12-08T22:40:27.861Z,97575.33
2017-12-08T22:42:55.241Z,97576.81
2017-12-08T22:45:22.738Z,97576.20
2017-12-08T22:47:50.171Z,97579.26
2017-12-08T22:50:17.617Z,97576.93
2017-12-08T22:52:45.154Z,97579.12
2017-12-08T22:55:12.575Z,97571.73
2017-12-08T22:57:39.966Z,97584.56
2017-12-08T23:00:07.459Z,97580.75
2017-12-08T23:02:34.860Z,97593.33
2017-12-08T23:05:02.337Z,97591.63
2017-12-08T23:07:30.141Z,97587.59
2017-12-08T23:09:57.639Z,97594.75
2017-12-08T23:12:25.098Z,97593.03
2017-12-08T23:14:52.534Z,97594.75
2017-12-08T23:17:19.922Z,97598.13
2017-12-08T23:19:47.506Z,97598.95
2017-12-08T23:22:14.999Z,97599.47
2017-12-08T23:24:42.480Z,97605.41
2017-12-08T23:27:09.868Z,97606.50
2017-12-08T23:29:37.302Z,97607.44
2017-12-08T23:32:04.709Z,97621.27
2017-12-08T23:34:32.188Z,97609.61
2017-12-08T23:37:00.006Z,97606.28
2017-12-08T23:39:32.335Z,97597.19
2017-12-08T23:41:59.821Z,97596.30
2017-12-08T23:44:27.356Z,97594.64
2017-12-08T23:46:54.800Z,97600.59
2017-12-08T23:49:22.190Z,97592.39
2017-12-08T23:51:49.682Z,97591.28
2017-12-08T23:54:17.147Z,97590.61
2017-12-08T23:56:44.586Z,97584.06
2017-12-08T23:59:11.983Z,97596.28
